Terminal Aerodrome Forecast
Issued by NWS

Home | Current Version | Previous Version | Text Only | Print | Product List | Glossary On
Versions: 1 2 3 4 5 6 7 8 9 10 11 12 13 14 15 16 17
000
FTAK31 PANC 021130
TAFADQ
TAF
PADQ 021130Z 0212/0312 VRB06KT P6SM -SHRA SCT015 OVC025
     FM021800 36009KT P6SM -SHRA SCT015 BKN025
     FM022100 07009KT P6SM -SHRA SCT025 BKN040
     FM030700 34006KT P6SM VCSH SCT030 BKN050=

USA.gov is the U.S. government's official web portal to all federal, state and local government web resources and services.